createdAt,value
2019-03-08T00:01:27.823Z,95897.31
2019-03-08T00:03:58.404Z,95905.49
2019-03-08T00:06:29.254Z,95892.14
2019-03-08T00:08:59.836Z,95898.01
2019-03-08T00:11:30.478Z,95887.63
2019-03-08T00:14:00.944Z,95893.45
2019-03-08T00:16:31.399Z,95901.27
2019-03-08T00:19:02.046Z,95898.06
2019-03-08T00:21:32.435Z,95902.33
2019-03-08T00:24:02.955Z,95904.45
2019-03-08T00:26:33.398Z,95908.23
2019-03-08T00:29:05.875Z,95907.87
2019-03-08T00:31:36.550Z,95913.52
2019-03-08T00:34:07.189Z,95912.38
2019-03-08T00:36:37.787Z,95915.59
2019-03-08T00:39:08.661Z,95919.34
2019-03-08T00:41:38.995Z,95915.92
2019-03-08T00:44:09.461Z,95916.41
2019-03-08T00:46:39.910Z,95917.72
2019-03-08T00:49:10.334Z,95905.02
2019-03-08T00:51:40.760Z,95907.13
2019-03-08T00:54:11.012Z,95919.51
2019-03-08T00:56:41.457Z,95916.61
2019-03-08T00:59:11.899Z,95919.22
2019-03-08T01:01:42.310Z,95917.92
2019-03-08T01:04:12.677Z,95914.00
2019-03-08T01:06:43.024Z,95915.76
2019-03-08T01:09:13.529Z,95906.80
2019-03-08T01:11:45.318Z,95905.12
2019-03-08T01:14:15.984Z,95901.55
2019-03-08T01:16:46.445Z,95911.62
2019-03-08T01:19:16.885Z,95905.41
2019-03-08T01:21:47.300Z,95912.89
2019-03-08T01:24:17.657Z,95903.11
2019-03-08T01:26:47.945Z,95899.50
2019-03-08T01:29:18.342Z,95917.08
2019-03-08T01:31:48.609Z,95913.17
2019-03-08T01:34:19.087Z,95915.94
2019-03-08T01:36:49.410Z,95907.31
2019-03-08T01:39:19.787Z,95915.78
2019-03-08T01:41:50.209Z,95924.23
2019-03-08T01:44:20.682Z,95927.18
2019-03-08T01:46:51.115Z,95920.98
2019-03-08T01:49:21.813Z,95917.41
2019-03-08T01:51:52.304Z,95913.17
2019-03-08T01:54:22.663Z,95915.12
2019-03-08T01:56:53.011Z,95917.36
2019-03-08T01:59:23.411Z,95918.05
2019-03-08T02:01:54.037Z,95922.17
2019-03-08T02:04:24.417Z,95922.17
2019-03-08T02:06:54.844Z,95915.45
2019-03-08T02:09:25.239Z,95911.53
2019-03-08T02:11:55.576Z,95915.78
2019-03-08T02:14:26.438Z,95919.36
2019-03-08T02:16:56.902Z,95918.42
2019-03-08T02:19:27.335Z,95907.67
2019-03-08T02:21:57.742Z,95905.72
2019-03-08T02:24:28.092Z,95912.19
2019-03-08T02:26:58.739Z,95917.08
2019-03-08T02:29:29.085Z,95914.45
2019-03-08T02:31:59.536Z,95913.45
2019-03-08T02:34:29.983Z,95908.23
2019-03-08T02:37:00.438Z,95910.13
2019-03-08T02:39:30.751Z,95903.23
2019-03-08T02:42:01.176Z,95906.48
2019-03-08T02:44:31.632Z,95903.82
2019-03-08T02:47:02.097Z,95907.95
2019-03-08T02:49:32.483Z,95910.22
2019-03-08T02:52:03.759Z,95904.46
2019-03-08T02:54:34.560Z,95915.97
2019-03-08T02:57:05.332Z,95916.89
2019-03-08T02:59:35.610Z,95924.00
2019-03-08T03:02:06.001Z,95930.20
2019-03-08T03:04:36.420Z,95934.26
2019-03-08T03:07:06.850Z,95933.94
2019-03-08T03:09:37.294Z,95939.64
2019-03-08T03:12:07.793Z,95939.70
2019-03-08T03:14:38.176Z,95938.24
2019-03-08T03:17:08.599Z,95948.19
2019-03-08T03:19:38.864Z,95946.86
2019-03-08T03:22:09.295Z,95941.64
2019-03-08T03:24:39.721Z,95945.84
2019-03-08T03:27:10.165Z,95950.08
2019-03-08T03:29:40.359Z,95948.66
2019-03-08T03:32:10.714Z,95958.62
2019-03-08T03:34:41.196Z,95955.73
2019-03-08T03:37:11.626Z,95963.28
2019-03-08T03:39:42.113Z,95963.90
2019-03-08T03:42:12.593Z,95964.71
2019-03-08T03:44:43.242Z,95963.80
2019-03-08T03:47:13.656Z,95964.82
2019-03-08T03:49:44.091Z,95966.62
2019-03-08T03:52:14.515Z,95976.39
2019-03-08T03:54:44.845Z,95973.78
2019-03-08T03:57:15.623Z,95969.22
2019-03-08T03:59:45.989Z,95963.08
2019-03-08T04:02:16.391Z,95965.64
2019-03-08T04:04:46.835Z,95970.84
2019-03-08T04:07:17.249Z,95972.43
2019-03-08T04:09:47.902Z,95972.62
2019-03-08T04:12:18.388Z,95981.92
2019-03-08T04:14:48.719Z,95982.91
2019-03-08T04:17:19.192Z,95988.16
2019-03-08T04:19:49.786Z,95985.25
2019-03-08T04:22:20.581Z,95998.00
2019-03-08T04:24:51.070Z,95998.86
2019-03-08T04:27:21.511Z,95999.08
2019-03-08T04:29:51.826Z,96006.61
2019-03-08T04:32:22.232Z,96008.61
2019-03-08T04:34:52.742Z,96008.77
2019-03-08T04:37:23.172Z,96007.30
2019-03-08T04:39:53.565Z,96016.75
2019-03-08T04:42:23.968Z,96017.41
2019-03-08T04:44:54.383Z,96010.27
2019-03-08T04:47:24.772Z,96017.44
2019-03-08T04:49:55.123Z,96020.70
2019-03-08T04:52:25.372Z,96023.59
2019-03-08T04:54:55.829Z,96026.52
2019-03-08T04:57:26.179Z,96027.49
2019-03-08T04:59:56.594Z,96027.13
2019-03-08T05:02:28.624Z,96027.12
2019-03-08T05:04:59.107Z,96039.15
2019-03-08T05:07:29.523Z,96027.63
2019-03-08T05:09:59.891Z,96036.30
2019-03-08T05:12:31.046Z,96038.61
2019-03-08T05:15:01.728Z,96039.30
2019-03-08T05:17:32.030Z,96029.20
2019-03-08T05:20:02.360Z,96039.91
2019-03-08T05:22:32.865Z,96040.89
2019-03-08T05:25:03.446Z,96050.66
2019-03-08T05:27:34.112Z,96053.92
2019-03-08T05:30:04.823Z,96054.27
2019-03-08T05:32:35.204Z,96057.89
2019-03-08T05:35:06.716Z,96061.44
2019-03-08T05:37:37.027Z,96065.02
2019-03-08T05:40:08.443Z,96066.03
2019-03-08T05:42:38.908Z,96075.50
2019-03-08T05:45:09.303Z,96073.25
2019-03-08T05:47:39.733Z,96076.19
2019-03-08T05:50:10.967Z,96076.86
2019-03-08T05:52:41.502Z,96081.41
2019-03-08T05:55:11.952Z,96076.53
2019-03-08T05:57:42.598Z,96074.90
2019-03-08T06:00:14.668Z,96088.41
2019-03-08T06:02:45.091Z,96086.27
2019-03-08T06:05:15.371Z,96091.97
2019-03-08T06:07:45.795Z,96098.30
2019-03-08T06:10:36.908Z,96108.04
2019-03-08T06:13:08.520Z,96106.70
2019-03-08T06:15:39.141Z,96108.98
2019-03-08T06:18:09.543Z,96114.33
2019-03-08T06:20:39.995Z,96114.11
2019-03-08T06:23:10.391Z,96113.42
2019-03-08T06:25:40.817Z,96116.94
2019-03-08T06:28:11.301Z,96116.91
2019-03-08T06:30:41.754Z,96114.26
2019-03-08T06:33:12.123Z,96116.79
2019-03-08T06:35:42.587Z,96121.95
2019-03-08T06:38:12.884Z,96123.92
2019-03-08T06:40:43.313Z,96132.67
2019-03-08T06:43:13.985Z,96132.30
2019-03-08T06:45:44.468Z,96130.30
2019-03-08T06:48:14.922Z,96127.98
2019-03-08T06:50:45.441Z,96137.27
2019-03-08T06:53:15.834Z,96139.83
2019-03-08T06:55:46.617Z,96151.77
2019-03-08T06:58:25.206Z,96143.58
2019-03-08T07:01:14.446Z,96152.19
2019-03-08T07:03:44.811Z,96153.58
2019-03-08T07:06:15.279Z,96153.91
2019-03-08T07:08:45.603Z,96155.48
2019-03-08T07:11:16.045Z,96163.33
2019-03-08T07:13:46.434Z,96166.39
2019-03-08T07:16:16.747Z,96172.25
2019-03-08T07:18:47.505Z,96176.59
2019-03-08T07:21:39.880Z,96184.14
2019-03-08T07:24:16.319Z,96190.77
2019-03-08T07:27:05.961Z,96199.61
2019-03-08T07:29:54.024Z,96198.92
2019-03-08T07:32:49.421Z,96209.05
2019-03-08T07:35:28.611Z,96217.49
2019-03-08T07:38:29.919Z,96213.31
2019-03-08T07:41:31.203Z,96224.85
2019-03-08T07:44:22.396Z,96240.04
2019-03-08T07:47:17.741Z,96240.30
2019-03-08T07:50:07.067Z,96249.68
2019-03-08T07:53:05.742Z,96248.73
2019-03-08T07:55:53.938Z,96247.38
2019-03-08T07:58:51.955Z,96265.44
2019-03-08T08:01:27.639Z,96271.30
2019-03-08T08:04:15.624Z,96265.48
2019-03-08T08:07:17.159Z,96268.67
2019-03-08T08:10:03.505Z,96270.68
2019-03-08T08:12:50.124Z,96276.50
2019-03-08T08:15:37.555Z,96282.00
2019-03-08T08:18:45.534Z,96284.41
2019-03-08T08:21:23.145Z,96284.41
2019-03-08T08:23:59.359Z,96295.05
2019-03-08T08:26:51.186Z,96307.84
2019-03-08T08:29:46.699Z,96304.44
2019-03-08T08:32:39.881Z,96298.13
2019-03-08T08:35:28.234Z,96305.62
2019-03-08T08:38:21.105Z,96311.20
2019-03-08T08:41:09.145Z,96297.13
2019-03-08T08:43:58.967Z,96308.70
2019-03-08T08:46:51.347Z,96304.67
2019-03-08T08:49:42.169Z,96297.84
2019-03-08T08:52:31.669Z,96309.09
2019-03-08T08:55:15.691Z,96300.45
2019-03-08T08:58:14.487Z,96306.72
2019-03-08T09:01:12.887Z,96303.55
2019-03-08T09:03:51.482Z,96308.72
2019-03-08T09:06:47.345Z,96321.61
2019-03-08T09:09:43.176Z,96326.05
2019-03-08T09:12:31.169Z,96344.98
2019-03-08T09:15:08.607Z,96336.00
2019-03-08T09:17:50.083Z,96338.79
2019-03-08T09:20:38.044Z,96338.53
2019-03-08T09:23:24.311Z,96353.30
2019-03-08T09:26:12.873Z,96349.74
2019-03-08T09:28:54.599Z,96352.77
2019-03-08T09:31:34.033Z,96354.61
2019-03-08T09:34:23.557Z,96356.88
2019-03-08T09:37:06.706Z,96359.91
2019-03-08T09:39:54.950Z,96360.05
2019-03-08T09:43:02.615Z,96366.06
2019-03-08T09:45:57.927Z,96382.66
2019-03-08T09:48:48.923Z,96366.58
2019-03-08T09:51:40.063Z,96383.64
2019-03-08T09:54:18.531Z,96380.70
2019-03-08T09:57:02.620Z,96384.33
2019-03-08T09:59:58.202Z,96393.34
2019-03-08T10:02:53.515Z,96396.63
2019-03-08T10:05:31.552Z,96390.96
2019-03-08T10:08:17.349Z,96397.51
2019-03-08T10:10:58.505Z,96402.85
2019-03-08T10:13:53.998Z,96401.72
2019-03-08T10:16:29.369Z,96400.33
2019-03-08T10:19:08.676Z,96401.90
2019-03-08T10:21:56.947Z,96401.41
2019-03-08T10:24:49.245Z,96408.81
2019-03-08T10:27:37.600Z,96401.39
2019-03-08T10:30:32.063Z,96401.92
2019-03-08T10:33:20.516Z,96405.63
2019-03-08T10:36:12.903Z,96399.60
2019-03-08T10:39:01.096Z,96406.36
2019-03-08T10:41:47.210Z,96407.70
2019-03-08T10:44:42.263Z,96401.22
2019-03-08T10:47:55.618Z,96413.45
2019-03-08T10:50:36.640Z,96401.61
2019-03-08T10:53:35.165Z,96416.14
2019-03-08T10:56:18.238Z,96424.08
2019-03-08T10:59:13.770Z,96419.78
2019-03-08T11:01:52.217Z,96421.83
2019-03-08T11:04:40.018Z,96418.67
2019-03-08T11:07:21.796Z,96418.97
2019-03-08T11:10:23.229Z,96419.82
2019-03-08T11:13:21.821Z,96417.23
2019-03-08T11:16:25.046Z,96425.97
2019-03-08T11:19:16.110Z,96434.20
2019-03-08T11:21:59.963Z,96438.91
2019-03-08T11:24:50.288Z,96449.97
2019-03-08T11:27:38.690Z,96451.69
2019-03-08T11:30:38.416Z,96446.89
2019-03-08T11:33:33.799Z,96453.36
2019-03-08T11:36:23.138Z,96460.78
2019-03-08T11:39:11.929Z,96465.74
2019-03-08T11:42:10.724Z,96460.27
2019-03-08T11:45:09.090Z,96455.43
2019-03-08T11:47:56.702Z,96462.48
2019-03-08T11:50:46.462Z,96465.67
2019-03-08T11:53:36.165Z,96452.56
2019-03-08T11:56:25.403Z,96458.89
2019-03-08T11:59:26.755Z,96455.39
2019-03-08T12:02:22.779Z,96447.63
2019-03-08T12:05:00.732Z,96454.42
2019-03-08T12:07:51.793Z,96454.00
2019-03-08T12:10:30.594Z,96447.20
2019-03-08T12:13:16.612Z,96449.68
2019-03-08T12:16:12.224Z,96445.79
2019-03-08T12:19:00.270Z,96451.25
2019-03-08T12:22:01.757Z,96453.30
2019-03-08T12:24:40.106Z,96442.33
2019-03-08T12:27:32.845Z,96439.48
2019-03-08T12:30:33.020Z,96431.91
2019-03-08T12:33:28.144Z,96434.09
2019-03-08T12:36:06.225Z,96429.45
2019-03-08T12:38:50.906Z,96435.14
2019-03-08T12:41:49.154Z,96430.62
2019-03-08T12:44:25.379Z,96436.38
2019-03-08T12:47:11.434Z,96444.09
2019-03-08T12:50:15.911Z,96452.03
2019-03-08T12:53:08.164Z,96444.58
2019-03-08T12:56:13.661Z,96451.13
2019-03-08T12:59:02.885Z,96447.81
2019-03-08T13:01:40.499Z,96450.23
2019-03-08T13:04:28.572Z,96445.80
2019-03-08T13:07:18.502Z,96450.94
2019-03-08T13:09:48.960Z,96446.41
2019-03-08T13:12:19.877Z,96442.25
2019-03-08T13:14:50.335Z,96443.72
2019-03-08T13:17:21.005Z,96445.98
2019-03-08T13:19:51.452Z,96451.45
2019-03-08T13:22:22.212Z,96442.80
2019-03-08T13:24:52.630Z,96447.31
2019-03-08T13:27:23.105Z,96458.16
2019-03-08T13:29:53.602Z,96460.87
2019-03-08T13:32:24.201Z,96470.69
2019-03-08T13:34:55.054Z,96472.63
2019-03-08T13:37:25.492Z,96474.45
2019-03-08T13:39:55.964Z,96465.04
2019-03-08T13:42:26.275Z,96482.36
2019-03-08T13:44:56.713Z,96472.44
2019-03-08T13:47:27.060Z,96467.98
2019-03-08T13:49:57.472Z,96470.81
2019-03-08T13:52:27.890Z,96471.52
2019-03-08T13:54:58.343Z,96482.05
2019-03-08T13:57:28.838Z,96474.06
2019-03-08T13:59:59.308Z,96471.83
2019-03-08T14:02:29.649Z,96475.27
2019-03-08T14:05:00.066Z,96476.39
2019-03-08T14:07:30.463Z,96476.39
2019-03-08T14:10:00.830Z,96470.63
2019-03-08T14:12:31.208Z,96467.36
2019-03-08T14:15:01.635Z,96467.89
2019-03-08T14:17:32.046Z,96473.11
2019-03-08T14:20:09.425Z,96475.64
2019-03-08T14:22:39.881Z,96472.17
2019-03-08T14:25:10.481Z,96466.61
2019-03-08T14:27:40.929Z,96481.77
2019-03-08T14:30:14.420Z,96484.91
2019-03-08T14:32:45.177Z,96477.62
2019-03-08T14:35:16.161Z,96480.03
2019-03-08T14:37:46.518Z,96485.13
2019-03-08T14:40:35.011Z,96488.03
2019-03-08T14:43:20.104Z,96484.83
2019-03-08T14:46:01.592Z,96494.61
2019-03-08T14:48:32.050Z,96494.49
2019-03-08T14:51:02.697Z,96492.61
2019-03-08T14:53:34.327Z,96492.51
2019-03-08T14:56:04.887Z,96496.88
2019-03-08T14:58:36.761Z,96502.55
2019-03-08T15:01:07.458Z,96505.27
2019-03-08T15:03:43.409Z,96505.37
2019-03-08T15:06:09.952Z,96503.23
2019-03-08T15:08:40.341Z,96503.16
2019-03-08T15:11:10.971Z,96503.95
2019-03-08T15:13:42.489Z,96498.43
2019-03-08T15:16:12.912Z,96504.00
2019-03-08T15:18:43.343Z,96503.27
2019-03-08T15:21:13.771Z,96507.89
2019-03-08T15:23:44.187Z,96507.13
2019-03-08T15:26:14.798Z,96506.13
2019-03-08T15:28:45.162Z,96509.81
2019-03-08T15:31:15.624Z,96508.08
2019-03-08T15:33:45.998Z,96518.23
2019-03-08T15:36:16.326Z,96514.60
2019-03-08T15:38:46.655Z,96528.46
2019-03-08T15:41:17.122Z,96518.72
2019-03-08T15:43:51.341Z,96515.64
2019-03-08T15:46:22.338Z,96529.02
2019-03-08T15:48:53.135Z,96527.52
2019-03-08T15:51:25.197Z,96528.92
2019-03-08T15:53:55.981Z,96531.11
2019-03-08T15:56:26.452Z,96538.11
2019-03-08T15:59:06.329Z,96544.45
2019-03-08T16:01:36.759Z,96546.93
2019-03-08T16:04:08.232Z,96547.89
2019-03-08T16:06:39.856Z,96552.70
2019-03-08T16:09:11.634Z,96546.75
2019-03-08T16:11:42.121Z,96544.56
2019-03-08T16:14:12.415Z,96552.96
2019-03-08T16:16:42.869Z,96563.37
2019-03-08T16:19:13.217Z,96566.23
2019-03-08T16:21:46.725Z,96560.67
2019-03-08T16:24:15.744Z,96557.12
2019-03-08T16:26:46.223Z,96558.78
2019-03-08T16:29:16.963Z,96562.51
2019-03-08T16:32:05.968Z,96567.11
2019-03-08T16:34:36.312Z,96568.63
2019-03-08T16:37:14.757Z,96570.91
2019-03-08T16:40:24.160Z,96568.05
2019-03-08T16:43:16.077Z,96574.22
2019-03-08T16:45:56.316Z,96581.55
2019-03-08T16:48:40.318Z,96584.99
2019-03-08T16:51:39.726Z,96584.65
2019-03-08T16:54:26.792Z,96588.34
2019-03-08T16:57:11.900Z,96597.50
2019-03-08T17:00:04.259Z,96589.83
2019-03-08T17:03:02.991Z,96598.78
2019-03-08T17:06:01.282Z,96598.18
2019-03-08T17:08:42.127Z,96600.51
2019-03-08T17:11:43.477Z,96615.73
2019-03-08T17:14:41.664Z,96618.96
2019-03-08T17:17:37.001Z,96621.91
2019-03-08T17:20:14.025Z,96624.08
2019-03-08T17:23:03.344Z,96635.53
2019-03-08T17:25:45.922Z,96630.79
2019-03-08T17:28:35.192Z,96643.39
2019-03-08T17:31:24.426Z,96646.94
2019-03-08T17:34:14.552Z,96641.47
2019-03-08T17:36:53.729Z,96650.31
2019-03-08T17:39:45.942Z,96654.20
2019-03-08T17:42:38.765Z,96661.97
2019-03-08T17:45:27.664Z,96666.35
2019-03-08T17:48:20.134Z,96673.55
2019-03-08T17:51:08.464Z,96678.83
2019-03-08T17:53:48.145Z,96680.75
2019-03-08T17:56:43.985Z,96687.00
2019-03-08T17:59:23.937Z,96685.57
2019-03-08T18:02:19.411Z,96689.73
2019-03-08T18:05:11.843Z,96693.09
2019-03-08T18:08:13.641Z,96698.08
2019-03-08T18:11:18.172Z,96700.39
2019-03-08T18:14:10.786Z,96706.95
2019-03-08T18:16:58.682Z,96712.55
2019-03-08T18:19:47.998Z,96710.10
2019-03-08T18:22:34.589Z,96717.66
2019-03-08T18:25:22.208Z,96720.74
2019-03-08T18:28:11.592Z,96721.08
2019-03-08T18:31:07.170Z,96720.09
2019-03-08T18:33:55.070Z,96728.91
2019-03-08T18:36:44.532Z,96726.93
2019-03-08T18:39:33.785Z,96730.05
2019-03-08T18:42:13.232Z,96735.44
2019-03-08T18:45:09.644Z,96736.91
2019-03-08T18:47:58.902Z,96742.94
2019-03-08T18:50:55.064Z,96746.53
2019-03-08T18:53:36.574Z,96747.70
2019-03-08T18:56:40.929Z,96748.50
2019-03-08T18:59:39.373Z,96755.34
2019-03-08T19:02:22.467Z,96754.99
2019-03-08T19:05:03.441Z,96766.08
2019-03-08T19:07:58.831Z,96762.83
2019-03-08T19:10:50.893Z,96767.69
2019-03-08T19:13:36.296Z,96755.61
2019-03-08T19:16:25.746Z,96764.75
2019-03-08T19:19:23.928Z,96758.53
2019-03-08T19:22:00.405Z,96771.43
2019-03-08T19:24:48.385Z,96772.55
2019-03-08T19:27:27.365Z,96785.27
2019-03-08T19:30:18.771Z,96788.84
2019-03-08T19:33:26.618Z,96794.36
2019-03-08T19:36:04.991Z,96801.22
2019-03-08T19:39:00.288Z,96809.03
2019-03-08T19:41:49.633Z,96807.02
2019-03-08T19:44:41.690Z,96800.16
2019-03-08T19:47:25.829Z,96797.88
2019-03-08T19:50:23.585Z,96797.16
2019-03-08T19:53:11.561Z,96803.52
2019-03-08T19:56:10.137Z,96792.56
2019-03-08T19:59:02.099Z,96791.41
2019-03-08T20:01:41.403Z,96791.89
2019-03-08T20:04:33.622Z,96786.19
2019-03-08T20:07:31.972Z,96785.36
2019-03-08T20:10:24.049Z,96790.84
2019-03-08T20:13:12.306Z,96787.84
2019-03-08T20:16:02.926Z,96795.36
2019-03-08T20:19:04.309Z,96791.77
2019-03-08T20:21:51.859Z,96797.66
2019-03-08T20:24:39.942Z,96792.44
2019-03-08T20:27:38.242Z,96796.16
2019-03-08T20:30:29.515Z,96791.89
2019-03-08T20:33:17.522Z,96790.09
2019-03-08T20:36:09.567Z,96799.02
2019-03-08T20:38:57.630Z,96805.66
2019-03-08T20:41:46.933Z,96804.99
2019-03-08T20:44:24.529Z,96807.24
2019-03-08T20:47:02.071Z,96802.34
2019-03-08T20:49:32.519Z,96810.09
2019-03-08T20:52:02.778Z,96811.73
2019-03-08T20:54:33.095Z,96809.39
2019-03-08T20:57:03.537Z,96804.52
2019-03-08T20:59:34.023Z,96800.28
2019-03-08T21:02:04.453Z,96801.10
2019-03-08T21:04:35.057Z,96799.82
2019-03-08T21:07:06.677Z,96798.66
2019-03-08T21:09:37.160Z,96806.16
2019-03-08T21:12:07.588Z,96806.73
2019-03-08T21:14:38.044Z,96817.16
2019-03-08T21:17:08.817Z,96809.03
2019-03-08T21:19:39.481Z,96808.70
2019-03-08T21:22:09.926Z,96808.02
2019-03-08T21:24:40.307Z,96804.11
2019-03-08T21:27:10.681Z,96804.93
2019-03-08T21:29:41.177Z,96805.89
2019-03-08T21:32:14.192Z,96797.27
2019-03-08T21:34:44.531Z,96792.03
2019-03-08T21:37:14.842Z,96795.23
2019-03-08T21:39:45.133Z,96801.75
2019-03-08T21:42:15.613Z,96798.66
2019-03-08T21:44:45.984Z,96796.66
2019-03-08T21:47:16.555Z,96798.24
2019-03-08T21:49:47.199Z,96797.73
2019-03-08T21:52:17.628Z,96785.66
2019-03-08T21:54:48.472Z,96788.86
2019-03-08T21:57:19.019Z,96788.14
2019-03-08T21:59:49.411Z,96796.66
2019-03-08T22:02:19.832Z,96802.18
2019-03-08T22:04:56.666Z,96799.58
2019-03-08T22:07:27.072Z,96801.53
2019-03-08T22:10:16.412Z,96800.48
2019-03-08T22:12:46.759Z,96804.72
2019-03-08T22:15:17.215Z,96801.88
2019-03-08T22:17:47.536Z,96801.53
2019-03-08T22:20:17.901Z,96802.46
2019-03-08T22:22:48.339Z,96795.02
2019-03-08T22:25:20.255Z,96802.46
2019-03-08T22:27:50.718Z,96806.25
2019-03-08T22:30:21.211Z,96806.42
2019-03-08T22:32:51.711Z,96803.54
2019-03-08T22:35:22.185Z,96798.95
2019-03-08T22:37:52.897Z,96802.23
2019-03-08T22:40:23.316Z,96798.61
2019-03-08T22:42:54.130Z,96799.63
2019-03-08T22:45:24.565Z,96790.19
2019-03-08T22:47:55.007Z,96784.30
2019-03-08T22:50:25.771Z,96789.64
2019-03-08T22:52:56.249Z,96789.50
2019-03-08T22:55:26.757Z,96786.95
2019-03-08T22:57:57.255Z,96787.27
2019-03-08T23:00:52.497Z,96787.80
2019-03-08T23:03:23.405Z,96786.30
2019-03-08T23:05:53.834Z,96782.94
2019-03-08T23:08:24.118Z,96776.94
2019-03-08T23:10:54.728Z,96778.91
2019-03-08T23:13:25.336Z,96776.33
2019-03-08T23:15:55.767Z,96777.30
2019-03-08T23:18:26.328Z,96779.61
2019-03-08T23:20:56.604Z,96779.30
2019-03-08T23:23:27.029Z,96777.70
2019-03-08T23:25:57.385Z,96779.16
2019-03-08T23:28:46.850Z,96777.99
2019-03-08T23:31:22.816Z,96777.34
2019-03-08T23:33:53.280Z,96777.27
2019-03-08T23:36:23.661Z,96775.00
2019-03-08T23:38:54.341Z,96771.27
2019-03-08T23:41:25.035Z,96770.16
2019-03-08T23:43:55.409Z,96764.81
2019-03-08T23:46:25.899Z,96768.23
2019-03-08T23:48:56.437Z,96768.04
2019-03-08T23:51:26.898Z,96765.62
2019-03-08T23:53:57.452Z,96761.45
2019-03-08T23:56:27.914Z,96762.64
2019-03-08T23:58:58.358Z,96757.30
